createdAt,value
2019-05-30T00:06:13.544Z,61.27
2019-05-30T00:16:14.610Z,61.44
2019-05-30T00:26:17.576Z,62.28
2019-05-30T00:36:19.023Z,62.98
2019-05-30T00:46:20.098Z,63.18
2019-05-30T00:56:21.152Z,62.41
2019-05-30T01:06:22.193Z,63.08
2019-05-30T01:16:23.210Z,63.69
2019-05-30T01:26:24.232Z,63.45
2019-05-30T01:36:27.371Z,63.11
2019-05-30T01:46:28.563Z,63.46
2019-05-30T01:56:30.005Z,64.04
2019-05-30T02:06:31.019Z,64.07
2019-05-30T02:16:32.041Z,64.49
2019-05-30T02:26:33.066Z,64.83
2019-05-30T02:36:34.077Z,64.77
2019-05-30T02:46:35.196Z,65.03
2019-05-30T02:56:36.257Z,64.92
2019-05-30T03:06:37.599Z,64.49
2019-05-30T03:16:38.803Z,64.40
2019-05-30T03:26:39.907Z,64.69
2019-05-30T03:36:41.165Z,64.69
2019-05-30T03:46:47.078Z,64.71
2019-05-30T03:57:01.083Z,64.61
2019-05-30T04:07:15.997Z,64.32
2019-05-30T04:17:38.383Z,64.05
2019-05-30T04:27:39.417Z,63.32
2019-05-30T04:37:40.465Z,62.32
2019-05-30T04:47:41.475Z,61.61
2019-05-30T04:57:42.525Z,60.49
2019-05-30T05:07:43.568Z,59.81
2019-05-30T05:17:44.710Z,57.75
2019-05-30T05:27:45.743Z,56.38
2019-05-30T05:37:46.788Z,55.33
2019-05-30T05:47:47.800Z,53.46
2019-05-30T05:57:48.880Z,48.47
2019-05-30T06:07:50.014Z,20.31
2019-05-30T06:17:51.020Z,13.16
2019-05-30T06:27:52.288Z,9.44
2019-05-30T06:37:53.360Z,9.44
2019-05-30T06:47:54.375Z,7.80
2019-05-30T06:57:55.523Z,7.01
2019-05-30T07:07:56.581Z,5.69
2019-05-30T07:17:57.818Z,5.51
2019-05-30T07:27:58.858Z,4.66
2019-05-30T07:37:59.937Z,4.24
2019-05-30T07:48:01.075Z,3.47
2019-05-30T07:58:02.377Z,3.09
2019-05-30T08:08:03.622Z,3.47
2019-05-30T08:18:04.642Z,7.51
2019-05-30T08:28:05.935Z,11.79
2019-05-30T08:38:07.596Z,7.91
2019-05-30T08:48:08.889Z,4.42
2019-05-30T08:58:10.084Z,3.10
2019-05-30T09:08:11.237Z,5.18
2019-05-30T09:18:12.268Z,7.31
2019-05-30T09:28:13.506Z,9.10
2019-05-30T09:38:14.766Z,4.46
2019-05-30T09:48:16.274Z,3.01
2019-05-30T09:58:18.434Z,8.13
2019-05-30T10:08:19.468Z,5.51
2019-05-30T10:18:20.713Z,5.10
2019-05-30T10:28:23.019Z,6.73
2019-05-30T10:38:26.106Z,7.00
2019-05-30T10:48:27.217Z,5.08
2019-05-30T10:58:28.296Z,5.63
2019-05-30T11:08:30.735Z,9.15
2019-05-30T11:18:31.739Z,13.95
2019-05-30T11:28:32.799Z,15.54
2019-05-30T11:38:33.944Z,16.03
2019-05-30T11:48:37.490Z,17.09
2019-05-30T11:58:38.663Z,18.39
2019-05-30T12:08:39.788Z,17.71
2019-05-30T12:18:40.881Z,16.44
2019-05-30T12:28:42.151Z,17.11
2019-05-30T12:38:43.185Z,15.50
2019-05-30T12:48:44.335Z,15.53
2019-05-30T12:58:45.524Z,15.13
2019-05-30T13:08:46.623Z,15.15
2019-05-30T13:18:47.892Z,17.40
2019-05-30T13:28:49.017Z,17.75
2019-05-30T13:38:50.124Z,14.85
2019-05-30T13:48:51.272Z,16.00
2019-05-30T13:58:52.328Z,16.69
2019-05-30T14:08:54.622Z,16.30
2019-05-30T14:18:55.654Z,16.67
2019-05-30T14:28:56.719Z,16.76
2019-05-30T14:38:59.082Z,15.74
2019-05-30T14:49:00.416Z,15.87
2019-05-30T14:59:01.493Z,17.12
2019-05-30T15:09:16.368Z,17.00
2019-05-30T15:19:08.465Z,15.47
2019-05-30T15:29:10.059Z,16.64
2019-05-30T15:39:11.360Z,14.46
2019-05-30T15:49:12.815Z,15.05
2019-05-30T15:59:14.100Z,14.99
2019-05-30T16:09:15.248Z,15.69
2019-05-30T16:19:22.004Z,16.03
2019-05-30T16:29:19.831Z,16.79
2019-05-30T16:39:22.497Z,17.66
2019-05-30T16:49:23.723Z,16.49
2019-05-30T16:59:24.879Z,16.72
2019-05-30T17:09:27.977Z,17.71
2019-05-30T17:19:28.962Z,18.25
2019-05-30T17:29:30.125Z,19.10
2019-05-30T17:39:31.139Z,20.33
2019-05-30T17:49:32.246Z,21.26
2019-05-30T17:59:33.305Z,20.99
2019-05-30T18:09:34.449Z,21.39
2019-05-30T18:19:35.470Z,23.35
2019-05-30T18:29:36.541Z,24.54
2019-05-30T18:39:37.642Z,26.37
2019-05-30T18:49:38.840Z,27.72
2019-05-30T18:59:39.991Z,29.48
2019-05-30T19:09:41.331Z,31.04
2019-05-30T19:19:43.370Z,32.70
2019-05-30T19:29:45.398Z,33.26
2019-05-30T19:39:46.446Z,33.70
2019-05-30T19:49:47.453Z,34.35
2019-05-30T19:59:48.597Z,35.58
2019-05-30T20:10:00.830Z,35.94
2019-05-30T20:19:54.869Z,37.00
2019-05-30T20:29:56.021Z,37.34
2019-05-30T20:39:57.042Z,38.42
2019-05-30T20:49:58.051Z,39.65
2019-05-30T20:59:59.075Z,40.69
2019-05-30T21:10:04.149Z,40.45
2019-05-30T21:20:10.808Z,41.21
2019-05-30T21:30:09.893Z,41.23
2019-05-30T21:40:11.528Z,41.43
2019-05-30T21:50:13.036Z,41.69
2019-05-30T22:00:19.372Z,42.25
2019-05-30T22:10:22.386Z,41.67
2019-05-30T22:20:23.514Z,41.87
2019-05-30T22:30:24.626Z,41.79
2019-05-30T22:40:25.752Z,42.10
2019-05-30T22:50:26.867Z,42.13
2019-05-30T23:00:28.874Z,43.34
2019-05-30T23:10:30.055Z,43.49
2019-05-30T23:20:32.222Z,44.57
2019-05-30T23:30:33.331Z,43.96
2019-05-30T23:40:35.185Z,42.66
2019-05-30T23:50:36.327Z,43.28
